sensor_id;sensor_type;location;lat;lon;timestamp;temperature;humidity
43249;DHT22;29216;51.248;6.808;2023-02-28T00:00:49;0.60;1.00
43249;DHT22;29216;51.248;6.808;2023-02-28T00:03:15;0.60;1.00
43249;DHT22;29216;51.248;6.808;2023-02-28T00:05:41;0.60;1.00
43249;DHT22;29216;51.248;6.808;2023-02-28T00:08:07;0.60;1.00
43249;DHT22;29216;51.248;6.808;2023-02-28T00:10:33;0.70;1.00
43249;DHT22;29216;51.248;6.808;2023-02-28T00:13:04;0.70;1.00
43249;DHT22;29216;51.248;6.808;2023-02-28T00:15:31;0.70;1.00
43249;DHT22;29216;51.248;6.808;2023-02-28T00:17:56;0.60;1.00
43249;DHT22;29216;51.248;6.808;2023-02-28T00:20:22;0.60;1.00
43249;DHT22;29216;51.248;6.808;2023-02-28T00:22:50;0.60;1.00
43249;DHT22;29216;51.248;6.808;2023-02-28T00:25:18;0.60;1.00
43249;DHT22;29216;51.248;6.808;2023-02-28T00:27:45;0.70;1.00
43249;DHT22;29216;51.248;6.808;2023-02-28T00:30:15;0.70;1.00
43249;DHT22;29216;51.248;6.808;2023-02-28T00:32:41;0.90;1.00
43249;DHT22;29216;51.248;6.808;2023-02-28T00:35:08;1.00;1.00
43249;DHT22;29216;51.248;6.808;2023-02-28T00:37:34;1.00;1.00
43249;DHT22;29216;51.248;6.808;2023-02-28T00:40:00;1.10;1.00
43249;DHT22;29216;51.248;6.808;2023-02-28T00:42:26;1.20;1.00
43249;DHT22;29216;51.248;6.808;2023-02-28T00:44:52;1.20;1.00
43249;DHT22;29216;51.248;6.808;2023-02-28T00:47:17;1.30;1.00
43249;DHT22;29216;51.248;6.808;2023-02-28T00:49:43;1.30;1.00
43249;DHT22;29216;51.248;6.808;2023-02-28T00:52:08;1.30;1.00
43249;DHT22;29216;51.248;6.808;2023-02-28T00:54:34;1.30;1.00
43249;DHT22;29216;51.248;6.808;2023-02-28T00:57:00;1.30;1.00
43249;DHT22;29216;51.248;6.808;2023-02-28T00:59:25;1.30;1.00
43249;DHT22;29216;51.248;6.808;2023-02-28T01:01:51;1.10;1.00
43249;DHT22;29216;51.248;6.808;2023-02-28T01:04:17;1.10;1.00
43249;DHT22;29216;51.248;6.808;2023-02-28T01:06:43;1.00;1.00
43249;DHT22;29216;51.248;6.808;2023-02-28T01:09:09;0.90;1.00
43249;DHT22;29216;51.248;6.808;2023-02-28T01:11:36;0.80;1.00
43249;DHT22;29216;51.248;6.808;2023-02-28T01:14:02;0.70;1.00
43249;DHT22;29216;51.248;6.808;2023-02-28T01:16:28;0.70;1.00
43249;DHT22;29216;51.248;6.808;2023-02-28T01:18:53;0.70;1.00
43249;DHT22;29216;51.248;6.808;2023-02-28T01:21:20;0.60;1.00
43249;DHT22;29216;51.248;6.808;2023-02-28T01:23:47;0.50;1.00
43249;DHT22;29216;51.248;6.808;2023-02-28T01:26:18;0.50;1.00
43249;DHT22;29216;51.248;6.808;2023-02-28T01:28:45;0.30;1.00
43249;DHT22;29216;51.248;6.808;2023-02-28T01:31:11;0.20;1.00
43249;DHT22;29216;51.248;6.808;2023-02-28T01:33:37;0.20;1.00
43249;DHT22;29216;51.248;6.808;2023-02-28T01:36:12;0.10;1.00
43249;DHT22;29216;51.248;6.808;2023-02-28T01:38:38;0.20;1.00
43249;DHT22;29216;51.248;6.808;2023-02-28T01:41:05;0.20;1.00
43249;DHT22;29216;51.248;6.808;2023-02-28T01:43:51;0.10;1.00
43249;DHT22;29216;51.248;6.808;2023-02-28T01:46:17;0.00;1.00
43249;DHT22;29216;51.248;6.808;2023-02-28T01:51:21;0.00;1.00
43249;DHT22;29216;51.248;6.808;2023-02-28T01:53:51;0.10;1.00
43249;DHT22;29216;51.248;6.808;2023-02-28T01:56:22;0.10;1.00
43249;DHT22;29216;51.248;6.808;2023-02-28T01:58:50;0.00;1.00
43249;DHT22;29216;51.248;6.808;2023-02-28T02:01:17;-0.10;1.00
43249;DHT22;29216;51.248;6.808;2023-02-28T02:03:48;0.00;1.00
43249;DHT22;29216;51.248;6.808;2023-02-28T02:06:22;-0.10;1.00
43249;DHT22;29216;51.248;6.808;2023-02-28T02:08:47;-0.20;1.00
43249;DHT22;29216;51.248;6.808;2023-02-28T02:11:16;-0.20;9.20
43249;DHT22;29216;51.248;6.808;2023-02-28T02:16:54;-0.30;8.40
43249;DHT22;29216;51.248;6.808;2023-02-28T02:28:10;-0.40;20.10
43249;DHT22;29216;51.248;6.808;2023-02-28T02:36:37;-0.60;33.40
43249;DHT22;29216;51.248;6.808;2023-02-28T02:39:14;-0.70;37.30
43249;DHT22;29216;51.248;6.808;2023-02-28T02:41:54;-0.80;42.90
43249;DHT22;29216;51.248;6.808;2023-02-28T02:44:34;-0.80;45.60
43249;DHT22;29216;51.248;6.808;2023-02-28T02:47:09;-0.90;55.30
43249;DHT22;29216;51.248;6.808;2023-02-28T02:49:38;-1.00;57.50
43249;DHT22;29216;51.248;6.808;2023-02-28T02:52:16;-1.00;63.40
43249;DHT22;29216;51.248;6.808;2023-02-28T02:54:45;-1.10;67.20
43249;DHT22;29216;51.248;6.808;2023-02-28T02:57:36;-1.00;83.90
43249;DHT22;29216;51.248;6.808;2023-02-28T03:00:04;-1.00;80.70
43249;DHT22;29216;51.248;6.808;2023-02-28T03:02:35;-1.00;80.40
43249;DHT22;29216;51.248;6.808;2023-02-28T03:05:07;-1.00;77.20
43249;DHT22;29216;51.248;6.808;2023-02-28T03:07:42;-1.00;77.30
43249;DHT22;29216;51.248;6.808;2023-02-28T03:15:55;-1.00;86.10
43249;DHT22;29216;51.248;6.808;2023-02-28T03:18:41;-1.10;86.30
43249;DHT22;29216;51.248;6.808;2023-02-28T03:21:34;-1.00;87.90
43249;DHT22;29216;51.248;6.808;2023-02-28T03:26:41;-1.00;88.30
43249;DHT22;29216;51.248;6.808;2023-02-28T03:29:27;-0.90;82.20
43249;DHT22;29216;51.248;6.808;2023-02-28T03:32:02;-0.90;73.50
43249;DHT22;29216;51.248;6.808;2023-02-28T03:34:33;-0.80;65.20
43249;DHT22;29216;51.248;6.808;2023-02-28T03:37:04;-0.70;54.50
43249;DHT22;29216;51.248;6.808;2023-02-28T03:39:47;-0.60;43.60
43249;DHT22;29216;51.248;6.808;2023-02-28T03:42:19;-0.60;37.50
43249;DHT22;29216;51.248;6.808;2023-02-28T03:44:51;-0.60;31.90
43249;DHT22;29216;51.248;6.808;2023-02-28T03:47:29;-0.50;27.10
43249;DHT22;29216;51.248;6.808;2023-02-28T03:52:35;-0.50;21.20
43249;DHT22;29216;51.248;6.808;2023-02-28T03:55:07;-0.50;12.20
43249;DHT22;29216;51.248;6.808;2023-02-28T04:00:38;-0.60;14.20
43249;DHT22;29216;51.248;6.808;2023-02-28T04:03:05;-0.60;12.40
43249;DHT22;29216;51.248;6.808;2023-02-28T04:05:32;-0.70;14.70
43249;DHT22;29216;51.248;6.808;2023-02-28T04:08:06;-0.70;14.20
43249;DHT22;29216;51.248;6.808;2023-02-28T04:10:32;-0.70;16.70
43249;DHT22;29216;51.248;6.808;2023-02-28T04:12:58;-0.70;15.60
43249;DHT22;29216;51.248;6.808;2023-02-28T04:15:23;-0.70;15.40
43249;DHT22;29216;51.248;6.808;2023-02-28T04:17:50;-0.80;15.10
43249;DHT22;29216;51.248;6.808;2023-02-28T04:20:15;-0.80;13.90
43249;DHT22;29216;51.248;6.808;2023-02-28T04:22:41;-0.80;14.00
43249;DHT22;29216;51.248;6.808;2023-02-28T04:25:07;-0.90;15.60
43249;DHT22;29216;51.248;6.808;2023-02-28T04:27:33;-0.90;15.00
43249;DHT22;29216;51.248;6.808;2023-02-28T04:29:59;-0.90;9.90
43249;DHT22;29216;51.248;6.808;2023-02-28T04:32:25;-1.00;17.40
43249;DHT22;29216;51.248;6.808;2023-02-28T04:34:50;-1.10;33.70
43249;DHT22;29216;51.248;6.808;2023-02-28T04:37:16;-1.10;25.20
43249;DHT22;29216;51.248;6.808;2023-02-28T04:39:42;-1.10;22.00
43249;DHT22;29216;51.248;6.808;2023-02-28T04:42:08;-1.10;19.80
43249;DHT22;29216;51.248;6.808;2023-02-28T04:44:34;-1.10;13.30
43249;DHT22;29216;51.248;6.808;2023-02-28T04:47:00;-1.10;19.10
43249;DHT22;29216;51.248;6.808;2023-02-28T04:49:25;-1.00;1.00
43249;DHT22;29216;51.248;6.808;2023-02-28T04:51:51;-1.00;1.00
43249;DHT22;29216;51.248;6.808;2023-02-28T04:54:18;-1.00;1.00
43249;DHT22;29216;51.248;6.808;2023-02-28T04:56:44;-1.00;1.00
43249;DHT22;29216;51.248;6.808;2023-02-28T04:59:09;-1.00;1.00
43249;DHT22;29216;51.248;6.808;2023-02-28T05:01:35;-1.00;1.00
43249;DHT22;29216;51.248;6.808;2023-02-28T05:04:03;-0.90;1.00
43249;DHT22;29216;51.248;6.808;2023-02-28T05:06:31;-0.90;1.00
43249;DHT22;29216;51.248;6.808;2023-02-28T05:08:57;-0.90;1.00
43249;DHT22;29216;51.248;6.808;2023-02-28T05:11:26;-0.80;1.00
43249;DHT22;29216;51.248;6.808;2023-02-28T05:13:52;-0.80;1.00
43249;DHT22;29216;51.248;6.808;2023-02-28T05:16:19;-0.80;1.00
43249;DHT22;29216;51.248;6.808;2023-02-28T05:18:45;-0.80;1.00
43249;DHT22;29216;51.248;6.808;2023-02-28T05:21:31;-0.80;1.00
43249;DHT22;29216;51.248;6.808;2023-02-28T05:24:06;-0.80;1.00
43249;DHT22;29216;51.248;6.808;2023-02-28T05:26:35;-0.80;1.00
43249;DHT22;29216;51.248;6.808;2023-02-28T05:29:01;-0.80;1.00
43249;DHT22;29216;51.248;6.808;2023-02-28T05:31:27;-0.90;1.00
43249;DHT22;29216;51.248;6.808;2023-02-28T05:33:53;-0.90;1.00
43249;DHT22;29216;51.248;6.808;2023-02-28T05:36:19;-1.00;1.00
43249;DHT22;29216;51.248;6.808;2023-02-28T05:38:48;-1.10;1.00
43249;DHT22;29216;51.248;6.808;2023-02-28T05:41:14;-1.10;1.00
43249;DHT22;29216;51.248;6.808;2023-02-28T05:43:40;-1.20;1.00
43249;DHT22;29216;51.248;6.808;2023-02-28T05:46:07;-1.30;1.00
43249;DHT22;29216;51.248;6.808;2023-02-28T05:48:34;-1.30;1.00
43249;DHT22;29216;51.248;6.808;2023-02-28T05:51:01;-1.20;1.00
43249;DHT22;29216;51.248;6.808;2023-02-28T05:53:28;-1.30;1.00
43249;DHT22;29216;51.248;6.808;2023-02-28T05:55:53;-1.30;1.00
43249;DHT22;29216;51.248;6.808;2023-02-28T05:58:19;-1.30;1.00
43249;DHT22;29216;51.248;6.808;2023-02-28T06:00:45;-1.30;1.00
43249;DHT22;29216;51.248;6.808;2023-02-28T06:03:11;-1.30;1.00
43249;DHT22;29216;51.248;6.808;2023-02-28T06:05:36;-1.30;1.00
43249;DHT22;29216;51.248;6.808;2023-02-28T06:08:03;-1.30;1.00
43249;DHT22;29216;51.248;6.808;2023-02-28T06:10:31;-1.30;1.00
43249;DHT22;29216;51.248;6.808;2023-02-28T06:13:00;-1.30;1.00
43249;DHT22;29216;51.248;6.808;2023-02-28T06:15:28;-1.30;1.00
43249;DHT22;29216;51.248;6.808;2023-02-28T06:17:54;-1.20;1.00
43249;DHT22;29216;51.248;6.808;2023-02-28T06:20:23;-1.30;1.00
43249;DHT22;29216;51.248;6.808;2023-02-28T06:22:49;-1.30;1.00
43249;DHT22;29216;51.248;6.808;2023-02-28T06:25:16;-1.20;1.00
43249;DHT22;29216;51.248;6.808;2023-02-28T06:27:42;-1.20;1.00
43249;DHT22;29216;51.248;6.808;2023-02-28T06:30:09;-1.20;1.00
43249;DHT22;29216;51.248;6.808;2023-02-28T06:32:35;-1.10;1.00
43249;DHT22;29216;51.248;6.808;2023-02-28T06:35:04;-1.10;1.00
43249;DHT22;29216;51.248;6.808;2023-02-28T06:37:31;-1.10;1.00
43249;DHT22;29216;51.248;6.808;2023-02-28T06:39:57;-1.10;1.00
43249;DHT22;29216;51.248;6.808;2023-02-28T06:42:24;-1.00;1.00
43249;DHT22;29216;51.248;6.808;2023-02-28T06:44:55;-1.00;1.00
43249;DHT22;29216;51.248;6.808;2023-02-28T06:47:21;-0.90;10.90
43249;DHT22;29216;51.248;6.808;2023-02-28T06:49:47;-0.90;1.00
43249;DHT22;29216;51.248;6.808;2023-02-28T06:52:12;-0.90;1.00
43249;DHT22;29216;51.248;6.808;2023-02-28T06:54:38;-0.90;2.30
43249;DHT22;29216;51.248;6.808;2023-02-28T06:57:04;-0.90;3.70
43249;DHT22;29216;51.248;6.808;2023-02-28T06:59:30;-0.90;1.00
43249;DHT22;29216;51.248;6.808;2023-02-28T07:01:55;-0.80;6.30
43249;DHT22;29216;51.248;6.808;2023-02-28T07:04:21;-0.70;18.70
43249;DHT22;29216;51.248;6.808;2023-02-28T07:06:47;-0.60;17.70
43249;DHT22;29216;51.248;6.808;2023-02-28T07:09:13;-0.60;18.60
43249;DHT22;29216;51.248;6.808;2023-02-28T07:11:39;-0.60;30.00
43249;DHT22;29216;51.248;6.808;2023-02-28T07:14:06;-0.40;33.10
43249;DHT22;29216;51.248;6.808;2023-02-28T07:16:32;0.30;17.30
43249;DHT22;29216;51.248;6.808;2023-02-28T07:18:58;1.50;99.90
43249;DHT22;29216;51.248;6.808;2023-02-28T07:21:24;2.60;99.90
43249;DHT22;29216;51.248;6.808;2023-02-28T07:23:49;3.80;99.40
43249;DHT22;29216;51.248;6.808;2023-02-28T07:26:17;4.50;97.10
43249;DHT22;29216;51.248;6.808;2023-02-28T07:28:44;5.20;94.90
43249;DHT22;29216;51.248;6.808;2023-02-28T07:31:11;5.70;92.10
43249;DHT22;29216;51.248;6.808;2023-02-28T07:33:37;6.20;91.70
43249;DHT22;29216;51.248;6.808;2023-02-28T07:36:04;6.80;90.00
43249;DHT22;29216;51.248;6.808;2023-02-28T07:38:34;7.40;87.20
43249;DHT22;29216;51.248;6.808;2023-02-28T07:41:01;7.90;81.90
43249;DHT22;29216;51.248;6.808;2023-02-28T07:43:30;8.50;73.80
43249;DHT22;29216;51.248;6.808;2023-02-28T07:45:55;8.10;70.40
43249;DHT22;29216;51.248;6.808;2023-02-28T07:48:21;7.80;73.10
43249;DHT22;29216;51.248;6.808;2023-02-28T07:50:57;7.40;74.20
43249;DHT22;29216;51.248;6.808;2023-02-28T07:53:23;7.80;74.30
43249;DHT22;29216;51.248;6.808;2023-02-28T07:55:49;8.00;72.30
43249;DHT22;29216;51.248;6.808;2023-02-28T07:58:14;8.10;73.90
43249;DHT22;29216;51.248;6.808;2023-02-28T08:00:41;8.50;69.70
43249;DHT22;29216;51.248;6.808;2023-02-28T08:03:11;9.10;67.20
43249;DHT22;29216;51.248;6.808;2023-02-28T08:05:40;9.50;64.00
43249;DHT22;29216;51.248;6.808;2023-02-28T08:08:06;9.50;61.50
43249;DHT22;29216;51.248;6.808;2023-02-28T08:10:32;9.60;60.90
43249;DHT22;29216;51.248;6.808;2023-02-28T08:12:58;9.90;58.60
43249;DHT22;29216;51.248;6.808;2023-02-28T08:15:23;10.20;57.50
43249;DHT22;29216;51.248;6.808;2023-02-28T08:17:49;10.90;56.20
43249;DHT22;29216;51.248;6.808;2023-02-28T08:20:14;11.40;54.50
43249;DHT22;29216;51.248;6.808;2023-02-28T08:22:40;12.00;50.60
43249;DHT22;29216;51.248;6.808;2023-02-28T08:25:07;11.60;50.30
43249;DHT22;29216;51.248;6.808;2023-02-28T08:27:33;11.50;50.00
43249;DHT22;29216;51.248;6.808;2023-02-28T08:29:58;11.40;49.00
43249;DHT22;29216;51.248;6.808;2023-02-28T08:32:24;11.00;49.20
43249;DHT22;29216;51.248;6.808;2023-02-28T08:34:50;9.80;51.10
43249;DHT22;29216;51.248;6.808;2023-02-28T08:37:16;8.50;54.00
43249;DHT22;29216;51.248;6.808;2023-02-28T08:39:42;7.30;58.50
43249;DHT22;29216;51.248;6.808;2023-02-28T08:42:07;6.30;59.60
43249;DHT22;29216;51.248;6.808;2023-02-28T08:44:33;5.60;62.80
43249;DHT22;29216;51.248;6.808;2023-02-28T08:46:59;5.20;66.40
43249;DHT22;29216;51.248;6.808;2023-02-28T08:49:24;4.80;68.20
43249;DHT22;29216;51.248;6.808;2023-02-28T08:51:50;4.50;68.30
43249;DHT22;29216;51.248;6.808;2023-02-28T08:54:15;4.20;70.50
43249;DHT22;29216;51.248;6.808;2023-02-28T08:56:45;4.00;70.40
43249;DHT22;29216;51.248;6.808;2023-02-28T08:59:11;3.80;73.30
43249;DHT22;29216;51.248;6.808;2023-02-28T09:01:37;3.70;72.80
43249;DHT22;29216;51.248;6.808;2023-02-28T09:04:03;3.60;74.30
43249;DHT22;29216;51.248;6.808;2023-02-28T09:06:28;3.50;75.40
43249;DHT22;29216;51.248;6.808;2023-02-28T09:08:58;3.50;76.00
43249;DHT22;29216;51.248;6.808;2023-02-28T09:11:25;3.60;75.30
43249;DHT22;29216;51.248;6.808;2023-02-28T09:13:50;3.60;75.10
43249;DHT22;29216;51.248;6.808;2023-02-28T09:16:17;3.50;73.40
43249;DHT22;29216;51.248;6.808;2023-02-28T09:18:43;3.50;70.50
43249;DHT22;29216;51.248;6.808;2023-02-28T09:21:11;3.50;71.20
43249;DHT22;29216;51.248;6.808;2023-02-28T09:23:41;3.60;70.20
43249;DHT22;29216;51.248;6.808;2023-02-28T09:26:11;3.60;71.70
43249;DHT22;29216;51.248;6.808;2023-02-28T09:28:38;3.80;71.40
43249;DHT22;29216;51.248;6.808;2023-02-28T09:31:03;3.90;71.00
43249;DHT22;29216;51.248;6.808;2023-02-28T09:33:30;4.00;69.80
43249;DHT22;29216;51.248;6.808;2023-02-28T09:36:00;4.00;69.40
43249;DHT22;29216;51.248;6.808;2023-02-28T09:38:26;4.20;68.60
43249;DHT22;29216;51.248;6.808;2023-02-28T09:40:58;4.10;69.90
43249;DHT22;29216;51.248;6.808;2023-02-28T09:43:28;4.30;69.50
43249;DHT22;29216;51.248;6.808;2023-02-28T09:46:28;4.40;68.90
43249;DHT22;29216;51.248;6.808;2023-02-28T09:48:55;4.40;68.70
43249;DHT22;29216;51.248;6.808;2023-02-28T09:51:59;4.30;67.20
43249;DHT22;29216;51.248;6.808;2023-02-28T09:54:27;4.20;67.80
43249;DHT22;29216;51.248;6.808;2023-02-28T09:57:32;4.10;67.30
43249;DHT22;29216;51.248;6.808;2023-02-28T10:05:41;4.30;69.20
43249;DHT22;29216;51.248;6.808;2023-02-28T10:08:18;4.40;67.30
43249;DHT22;29216;51.248;6.808;2023-02-28T10:11:07;4.40;67.30
43249;DHT22;29216;51.248;6.808;2023-02-28T10:13:35;4.50;66.30
43249;DHT22;29216;51.248;6.808;2023-02-28T10:16:14;4.60;66.00
43249;DHT22;29216;51.248;6.808;2023-02-28T10:18:47;4.80;64.90
43249;DHT22;29216;51.248;6.808;2023-02-28T10:21:18;4.90;62.50
43249;DHT22;29216;51.248;6.808;2023-02-28T10:23:45;5.00;63.60
43249;DHT22;29216;51.248;6.808;2023-02-28T10:26:14;5.10;64.10
43249;DHT22;29216;51.248;6.808;2023-02-28T10:28:41;5.10;63.30
43249;DHT22;29216;51.248;6.808;2023-02-28T10:31:12;5.10;63.20
43249;DHT22;29216;51.248;6.808;2023-02-28T10:33:39;5.00;63.30
43249;DHT22;29216;51.248;6.808;2023-02-28T10:36:05;5.00;64.40
43249;DHT22;29216;51.248;6.808;2023-02-28T10:38:37;5.00;64.60
43249;DHT22;29216;51.248;6.808;2023-02-28T10:43:33;5.00;63.60
43249;DHT22;29216;51.248;6.808;2023-02-28T10:46:11;4.90;62.60
43249;DHT22;29216;51.248;6.808;2023-02-28T10:49:00;4.80;64.70
43249;DHT22;29216;51.248;6.808;2023-02-28T10:51:35;4.90;66.10
43249;DHT22;29216;51.248;6.808;2023-02-28T10:54:02;5.00;63.30
43249;DHT22;29216;51.248;6.808;2023-02-28T10:56:29;5.00;63.60
43249;DHT22;29216;51.248;6.808;2023-02-28T11:01:45;4.60;61.90
43249;DHT22;29216;51.248;6.808;2023-02-28T11:06:59;4.20;64.50
43249;DHT22;29216;51.248;6.808;2023-02-28T11:09:30;4.10;64.10
43249;DHT22;29216;51.248;6.808;2023-02-28T11:11:57;4.10;64.50
43249;DHT22;29216;51.248;6.808;2023-02-28T11:14:28;4.10;64.60
43249;DHT22;29216;51.248;6.808;2023-02-28T11:17:11;4.20;63.10
43249;DHT22;29216;51.248;6.808;2023-02-28T11:19:43;4.20;63.90
43249;DHT22;29216;51.248;6.808;2023-02-28T11:22:09;4.20;65.20
43249;DHT22;29216;51.248;6.808;2023-02-28T11:24:44;4.40;64.60
43249;DHT22;29216;51.248;6.808;2023-02-28T11:29:56;4.40;63.30
43249;DHT22;29216;51.248;6.808;2023-02-28T11:32:23;4.40;64.10
43249;DHT22;29216;51.248;6.808;2023-02-28T11:37:28;4.30;63.90
43249;DHT22;29216;51.248;6.808;2023-02-28T11:39:54;4.30;64.60
43249;DHT22;29216;51.248;6.808;2023-02-28T11:48:23;4.40;63.10
43249;DHT22;29216;51.248;6.808;2023-02-28T11:51:15;4.20;62.80
43249;DHT22;29216;51.248;6.808;2023-02-28T11:54:47;4.30;64.50
43249;DHT22;29216;51.248;6.808;2023-02-28T11:56:58;4.40;66.20
43249;DHT22;29216;51.248;6.808;2023-02-28T12:04:53;4.90;63.80
43249;DHT22;29216;51.248;6.808;2023-02-28T12:07:36;4.90;63.40
43249;DHT22;29216;51.248;6.808;2023-02-28T12:10:22;4.90;64.70
43249;DHT22;29216;51.248;6.808;2023-02-28T12:18:11;4.60;63.90
43249;DHT22;29216;51.248;6.808;2023-02-28T12:28:53;4.50;66.50
43249;DHT22;29216;51.248;6.808;2023-02-28T12:31:49;4.50;65.60
43249;DHT22;29216;51.248;6.808;2023-02-28T12:34:20;4.50;65.80
43249;DHT22;29216;51.248;6.808;2023-02-28T12:36:49;4.60;67.60
43249;DHT22;29216;51.248;6.808;2023-02-28T12:39:29;4.60;66.90
43249;DHT22;29216;51.248;6.808;2023-02-28T12:42:22;4.60;66.00
43249;DHT22;29216;51.248;6.808;2023-02-28T12:44:54;4.60;65.50
43249;DHT22;29216;51.248;6.808;2023-02-28T12:47:22;4.50;65.50
43249;DHT22;29216;51.248;6.808;2023-02-28T12:49:56;4.50;67.40
43249;DHT22;29216;51.248;6.808;2023-02-28T12:52:52;4.60;66.60
43249;DHT22;29216;51.248;6.808;2023-02-28T13:00:47;4.70;67.20
43249;DHT22;29216;51.248;6.808;2023-02-28T13:11:29;4.80;66.90
43249;DHT22;29216;51.248;6.808;2023-02-28T13:14:06;4.80;67.70
43249;DHT22;29216;51.248;6.808;2023-02-28T13:19:27;4.80;66.80
43249;DHT22;29216;51.248;6.808;2023-02-28T13:21:54;4.80;67.30
43249;DHT22;29216;51.248;6.808;2023-02-28T13:39:48;4.90;67.20
43249;DHT22;29216;51.248;6.808;2023-02-28T13:47:35;5.00;66.40
43249;DHT22;29216;51.248;6.808;2023-02-28T13:50:21;5.00;67.70
43249;DHT22;29216;51.248;6.808;2023-02-28T14:03:51;5.10;69.20
43249;DHT22;29216;51.248;6.808;2023-02-28T14:11:32;5.10;68.70
43249;DHT22;29216;51.248;6.808;2023-02-28T14:13:59;5.10;69.70
43249;DHT22;29216;51.248;6.808;2023-02-28T14:16:28;5.10;70.40
43249;DHT22;29216;51.248;6.808;2023-02-28T14:19:11;5.10;70.20
43249;DHT22;29216;51.248;6.808;2023-02-28T14:27:31;5.20;71.50
43249;DHT22;29216;51.248;6.808;2023-02-28T14:30:24;5.30;71.30
43249;DHT22;29216;51.248;6.808;2023-02-28T14:33:13;5.40;71.50
43249;DHT22;29216;51.248;6.808;2023-02-28T14:36:11;5.40;71.00
43249;DHT22;29216;51.248;6.808;2023-02-28T14:38:58;5.40;70.20
43249;DHT22;29216;51.248;6.808;2023-02-28T14:41:32;5.40;70.90
43249;DHT22;29216;51.248;6.808;2023-02-28T14:44:01;5.50;71.20
43249;DHT22;29216;51.248;6.808;2023-02-28T14:46:37;5.40;70.50
43249;DHT22;29216;51.248;6.808;2023-02-28T14:49:05;5.40;70.90
43249;DHT22;29216;51.248;6.808;2023-02-28T14:51:33;5.40;71.50
43249;DHT22;29216;51.248;6.808;2023-02-28T14:54:00;5.50;70.90
43249;DHT22;29216;51.248;6.808;2023-02-28T14:56:36;5.40;70.40
43249;DHT22;29216;51.248;6.808;2023-02-28T14:59:03;5.40;70.60
43249;DHT22;29216;51.248;6.808;2023-02-28T15:01:28;5.40;72.50
43249;DHT22;29216;51.248;6.808;2023-02-28T15:04:00;5.40;71.20
43249;DHT22;29216;51.248;6.808;2023-02-28T15:06:28;5.40;70.90
43249;DHT22;29216;51.248;6.808;2023-02-28T15:09:22;5.40;71.40
43249;DHT22;29216;51.248;6.808;2023-02-28T15:11:49;5.40;72.50
43249;DHT22;29216;51.248;6.808;2023-02-28T15:14:18;5.50;72.70
43249;DHT22;29216;51.248;6.808;2023-02-28T15:16:46;5.40;72.90
43249;DHT22;29216;51.248;6.808;2023-02-28T15:19:22;5.40;73.90
43249;DHT22;29216;51.248;6.808;2023-02-28T15:21:55;5.40;74.30
43249;DHT22;29216;51.248;6.808;2023-02-28T15:24:43;5.50;74.40
43249;DHT22;29216;51.248;6.808;2023-02-28T15:27:16;5.40;74.70
43249;DHT22;29216;51.248;6.808;2023-02-28T15:29:48;5.40;75.10
43249;DHT22;29216;51.248;6.808;2023-02-28T15:32:32;5.40;75.00
43249;DHT22;29216;51.248;6.808;2023-02-28T15:34:59;5.40;74.50
43249;DHT22;29216;51.248;6.808;2023-02-28T15:38:18;5.40;75.60
43249;DHT22;29216;51.248;6.808;2023-02-28T15:40:52;5.40;75.00
43249;DHT22;29216;51.248;6.808;2023-02-28T15:45:52;5.40;74.50
43249;DHT22;29216;51.248;6.808;2023-02-28T15:51:03;5.30;75.50
43249;DHT22;29216;51.248;6.808;2023-02-28T15:53:59;5.20;75.00
43249;DHT22;29216;51.248;6.808;2023-02-28T15:58:59;5.20;75.40
43249;DHT22;29216;51.248;6.808;2023-02-28T16:01:36;5.20;74.40
43249;DHT22;29216;51.248;6.808;2023-02-28T16:04:20;5.20;75.80
43249;DHT22;29216;51.248;6.808;2023-02-28T16:09:24;5.20;76.70
43249;DHT22;29216;51.248;6.808;2023-02-28T16:11:55;5.10;77.10
43249;DHT22;29216;51.248;6.808;2023-02-28T16:14:24;5.10;77.60
43249;DHT22;29216;51.248;6.808;2023-02-28T16:16:52;5.10;78.60
43249;DHT22;29216;51.248;6.808;2023-02-28T16:19:18;5.10;79.60
43249;DHT22;29216;51.248;6.808;2023-02-28T16:21:45;5.00;80.10
43249;DHT22;29216;51.248;6.808;2023-02-28T16:24:11;5.00;84.50
43249;DHT22;29216;51.248;6.808;2023-02-28T16:26:44;5.00;82.80
43249;DHT22;29216;51.248;6.808;2023-02-28T16:29:15;4.90;82.50
43249;DHT22;29216;51.248;6.808;2023-02-28T16:31:42;4.90;83.20
43249;DHT22;29216;51.248;6.808;2023-02-28T16:34:08;4.80;84.50
43249;DHT22;29216;51.248;6.808;2023-02-28T16:36:33;4.80;84.20
43249;DHT22;29216;51.248;6.808;2023-02-28T16:38:59;4.80;85.10
43249;DHT22;29216;51.248;6.808;2023-02-28T16:41:26;4.70;84.70
43249;DHT22;29216;51.248;6.808;2023-02-28T16:43:55;4.70;84.80
43249;DHT22;29216;51.248;6.808;2023-02-28T16:46:30;4.70;86.60
43249;DHT22;29216;51.248;6.808;2023-02-28T16:48:57;4.60;87.10
43249;DHT22;29216;51.248;6.808;2023-02-28T16:51:22;4.60;86.80
43249;DHT22;29216;51.248;6.808;2023-02-28T16:53:48;4.50;87.30
43249;DHT22;29216;51.248;6.808;2023-02-28T16:56:22;4.50;87.50
43249;DHT22;29216;51.248;6.808;2023-02-28T16:58:49;4.50;87.70
43249;DHT22;29216;51.248;6.808;2023-02-28T17:01:15;4.50;87.70
43249;DHT22;29216;51.248;6.808;2023-02-28T17:03:41;4.40;88.50
43249;DHT22;29216;51.248;6.808;2023-02-28T17:06:26;4.40;88.80
43249;DHT22;29216;51.248;6.808;2023-02-28T17:08:53;4.20;90.00
43249;DHT22;29216;51.248;6.808;2023-02-28T17:11:20;4.10;90.40
43249;DHT22;29216;51.248;6.808;2023-02-28T17:13:45;4.10;90.50
43249;DHT22;29216;51.248;6.808;2023-02-28T17:16:22;4.10;91.00
43249;DHT22;29216;51.248;6.808;2023-02-28T17:18:50;4.10;91.30
43249;DHT22;29216;51.248;6.808;2023-02-28T17:21:16;4.00;91.40
43249;DHT22;29216;51.248;6.808;2023-02-28T17:23:43;4.00;91.50
43249;DHT22;29216;51.248;6.808;2023-02-28T17:26:16;3.90;91.50
43249;DHT22;29216;51.248;6.808;2023-02-28T17:28:50;3.90;91.80
43249;DHT22;29216;51.248;6.808;2023-02-28T17:31:17;3.80;92.50
43249;DHT22;29216;51.248;6.808;2023-02-28T17:33:43;3.80;92.30
43249;DHT22;29216;51.248;6.808;2023-02-28T17:36:17;3.80;92.90
43249;DHT22;29216;51.248;6.808;2023-02-28T17:38:47;3.70;93.30
43249;DHT22;29216;51.248;6.808;2023-02-28T17:41:13;3.70;93.60
43249;DHT22;29216;51.248;6.808;2023-02-28T17:43:39;3.70;94.20
43249;DHT22;29216;51.248;6.808;2023-02-28T17:46:05;3.60;94.50
43249;DHT22;29216;51.248;6.808;2023-02-28T17:48:32;3.70;94.80
43249;DHT22;29216;51.248;6.808;2023-02-28T17:50:58;3.70;94.80
43249;DHT22;29216;51.248;6.808;2023-02-28T17:53:23;3.60;95.10
43249;DHT22;29216;51.248;6.808;2023-02-28T17:55:50;3.60;95.50
43249;DHT22;29216;51.248;6.808;2023-02-28T17:58:15;3.50;95.50
43249;DHT22;29216;51.248;6.808;2023-02-28T18:00:41;3.40;95.90
43249;DHT22;29216;51.248;6.808;2023-02-28T18:03:06;3.40;96.30
43249;DHT22;29216;51.248;6.808;2023-02-28T18:05:32;3.40;96.30
43249;DHT22;29216;51.248;6.808;2023-02-28T18:07:58;3.30;96.40
43249;DHT22;29216;51.248;6.808;2023-02-28T18:10:24;3.30;97.00
43249;DHT22;29216;51.248;6.808;2023-02-28T18:12:51;3.20;97.20
43249;DHT22;29216;51.248;6.808;2023-02-28T18:15:18;3.20;97.60
43249;DHT22;29216;51.248;6.808;2023-02-28T18:17:46;3.20;98.60
43249;DHT22;29216;51.248;6.808;2023-02-28T18:20:11;3.10;98.90
43249;DHT22;29216;51.248;6.808;2023-02-28T18:22:38;3.10;99.20
43249;DHT22;29216;51.248;6.808;2023-02-28T18:25:05;3.10;98.70
43249;DHT22;29216;51.248;6.808;2023-02-28T18:27:31;3.00;99.00
43249;DHT22;29216;51.248;6.808;2023-02-28T18:29:57;3.00;99.10